createdAt,value
2018-09-02T18:22:26.065Z,5.28
2018-09-02T18:26:30.990Z,6.77
2018-09-02T18:30:34.737Z,5.33
2018-09-02T18:34:39.330Z,6.70
2018-09-02T18:38:43.121Z,6.08
2018-09-02T18:42:46.872Z,6.03
2018-09-02T18:46:51.570Z,5.12
2018-09-02T18:50:55.543Z,8.38
2018-09-02T18:54:59.252Z,6.95
2018-09-02T18:59:05.117Z,5.78
2018-09-02T19:03:09.581Z,9.20
2018-09-02T19:07:18.139Z,5.60
2018-09-02T19:11:22.622Z,6.22
2018-09-02T19:15:26.459Z,5.57
2018-09-02T19:19:29.979Z,4.83
2018-09-02T19:23:41.230Z,6.80
2018-09-02T19:27:44.870Z,5.33
2018-09-02T19:31:48.594Z,4.70
2018-09-02T19:35:53.366Z,6.23
2018-09-02T19:39:57.903Z,8.63
2018-09-02T19:44:04.227Z,7.00
2018-09-02T19:48:07.830Z,7.00
2018-09-02T19:52:11.506Z,5.60
2018-09-02T19:56:16.219Z,5.37
2018-09-02T20:00:19.922Z,6.33
2018-09-02T20:04:24.780Z,5.80
2018-09-02T20:08:30.002Z,6.47
2018-09-02T20:12:37.513Z,6.73
2018-09-02T20:16:41.112Z,6.20
2018-09-02T20:20:44.885Z,9.77
2018-09-02T20:24:48.663Z,7.97
2018-09-02T20:28:53.453Z,8.77
2018-09-02T20:32:58.340Z,8.00
2018-09-02T20:37:02.172Z,10.63
2018-09-02T20:41:06.250Z,6.53
2018-09-02T20:45:10.498Z,13.07
2018-09-02T20:49:15.553Z,7.60
2018-09-02T20:53:19.226Z,9.87
2018-09-02T20:57:22.785Z,12.70
2018-09-02T21:01:26.479Z,11.13
2018-09-02T21:05:30.113Z,10.47
2018-09-02T21:09:33.827Z,9.30
2018-09-02T21:13:38.151Z,8.67
2018-09-02T21:17:42.273Z,9.50
2018-09-02T21:21:45.844Z,10.47
2018-09-02T21:25:49.582Z,7.73
2018-09-02T21:29:53.202Z,5.73
2018-09-02T21:33:57.011Z,7.80
2018-09-02T21:38:02.558Z,6.27
2018-09-02T21:42:06.121Z,6.20
2018-09-02T21:46:09.793Z,3.43
2018-09-02T21:50:13.910Z,3.30
2018-09-02T21:54:17.606Z,2.07
2018-09-02T21:58:22.321Z,2.70
2018-09-02T22:02:25.953Z,2.13
2018-09-02T22:06:30.682Z,3.10
2018-09-02T22:10:34.360Z,1.80
2018-09-02T22:14:38.110Z,2.00
2018-09-02T22:18:41.747Z,1.30
2018-09-02T22:22:45.450Z,1.57
2018-09-02T22:26:49.041Z,1.93
2018-09-02T22:30:52.625Z,1.57
2018-09-02T22:34:56.183Z,2.20
2018-09-02T22:38:59.774Z,1.60
2018-09-02T22:43:03.382Z,1.93
2018-09-02T22:47:07.278Z,3.23
2018-09-02T22:51:11.183Z,1.37
2018-09-02T22:55:14.773Z,2.30
2018-09-02T22:59:18.370Z,2.73
2018-09-02T23:03:21.962Z,3.27
2018-09-02T23:07:26.138Z,1.40
2018-09-02T23:11:29.795Z,2.47
2018-09-02T23:15:33.461Z,1.70
2018-09-02T23:19:37.144Z,2.20
2018-09-02T23:23:40.879Z,2.27
2018-09-02T23:27:44.579Z,2.10
2018-09-02T23:31:48.275Z,4.10
2018-09-02T23:35:52.356Z,3.23
2018-09-02T23:39:55.894Z,2.60
2018-09-02T23:43:59.579Z,2.83
2018-09-02T23:48:03.098Z,2.47
2018-09-02T23:52:06.828Z,2.67
2018-09-02T23:56:10.518Z,2.37
